logo
Rechercher aéroport 
image banner adimage banner adimage banner ad
image banner ad

NVSO - Lonorore

Situé à , Vanuatu

ICAO - NVSO, IATA - LNE

Données fournies par Airmate  

Information générale

Coordonnées: S15°51'56" E168°10'18"
Élévation : 39 feet MSL.
 
Voir autres Aéroports à Penama

Données opérationnelles

Special qualification required
Heure actuelle UTC:
Heure actuelle locale:
Météo à : NVSG - Longana ( 66 km )
TAF: TAF NVSG 222300Z 2300/2324 12006KT 9999 BKN020 INTER 2300/2306 8000 SHRA FEW008 BKN018 OVC040
Voir NOTAMs / SUP AIP / TFR affectant cet aéroport [VIEW]
Fréquences de communication: [VIEW]

Pistes:

Identifiant RWYQFULongueur (ft)Largeur (ft)SurfaceLDA (ft)
15400972Grass
33400972Grass

Coordonnées de l'aéroport

Adresse: Vanuatu

Vue satellite de NVSO